Time;durP1;ratioP1;P1;durP2;ratioP2;P2;SDS_P1;SDS_P2;PMS_P1;PMS_P2;Temp;Humidity;BMP_temperature;BMP_pressure;BME280_temperature;BME280_humidity;BME280_pressure;Samples;Min_cycle;Max_cycle;Signal;HPM_P1;HPM_P2
2021/11/04 00:02:13;;;;;;;33.70;22.27;;;;;;;8.45;87.82;100500.22;5008383;28;20245;-72
2021/11/04 00:04:38;;;;;;;35.40;24.20;;;;;;;8.46;88.08;100504.50;5009193;28;20207;-72
2021/11/04 00:07:06;;;;;;;33.37;23.73;;;;;;;8.45;87.81;100507.00;5009505;28;20195;-72
2021/11/04 00:09:32;;;;;;;30.47;21.67;;;;;;;8.46;87.21;100501.06;5009092;28;20215;-72
2021/11/04 00:11:58;;;;;;;35.33;23.37;;;;;;;8.40;88.16;100488.19;5009262;28;20249;-72
2021/11/04 00:14:23;;;;;;;37.07;23.23;;;;;;;8.42;88.01;100494.16;5009025;28;20925;-72
2021/11/04 00:16:50;;;;;;;34.70;22.23;;;;;;;8.43;88.51;100493.34;5009322;28;20184;-72
2021/11/04 00:19:15;;;;;;;33.20;22.03;;;;;;;8.43;87.59;100483.16;5009163;28;20253;-72
2021/11/04 00:21:41;;;;;;;33.83;23.63;;;;;;;8.44;87.85;100487.41;5007660;28;20200;-72
2021/11/04 00:24:07;;;;;;;32.93;23.40;;;;;;;8.44;87.88;100495.91;5003852;28;20190;-72
2021/11/04 00:26:32;;;;;;;32.80;22.30;;;;;;;8.41;87.99;100490.78;5009083;28;20210;-72
2021/11/04 00:28:57;;;;;;;33.63;22.97;;;;;;;8.43;88.42;100495.91;5015415;28;20222;-72
2021/11/04 00:31:24;;;;;;;34.03;23.47;;;;;;;8.43;87.19;100504.41;5008355;28;20253;-72
2021/11/04 00:33:52;;;;;;;32.60;22.63;;;;;;;8.42;87.96;100497.59;5009494;28;20210;-72
2021/11/04 00:36:18;;;;;;;33.97;23.00;;;;;;;8.42;87.66;100495.03;5008363;28;20753;-72
2021/11/04 00:38:46;;;;;;;32.87;23.27;;;;;;;8.41;88.13;100495.88;5006575;28;20214;-71
2021/11/04 00:41:11;;;;;;;34.57;22.70;;;;;;;8.43;87.44;100483.16;5006887;28;20261;-72
2021/11/04 00:43:37;;;;;;;35.00;22.97;;;;;;;8.39;88.04;100479.66;5009002;28;20286;-72
2021/11/04 00:46:02;;;;;;;33.70;22.83;;;;;;;8.38;88.63;100484.75;5009519;28;20211;-72
2021/11/04 00:48:27;;;;;;;32.97;22.13;;;;;;;8.40;88.60;100485.63;5012214;28;20183;-72
2021/11/04 00:50:53;;;;;;;35.23;23.17;;;;;;;8.40;88.53;100488.19;5011476;28;20673;-72
2021/11/04 00:53:18;;;;;;;35.87;23.97;;;;;;;8.40;87.57;100494.16;5012188;28;20203;-72
2021/11/04 00:55:43;;;;;;;36.33;22.47;;;;;;;8.39;88.47;100497.50;5012571;28;20223;-72
2021/11/04 00:58:09;;;;;;;36.10;23.33;;;;;;;8.39;88.25;100487.31;5012110;28;20195;-72
2021/11/04 01:00:34;;;;;;;31.07;21.43;;;;;;;8.41;88.07;100485.66;5012010;28;20179;-72
2021/11/04 01:02:59;;;;;;;33.37;22.60;;;;;;;8.39;87.90;100479.66;5012474;28;20281;-72
2021/11/04 01:05:25;;;;;;;32.40;22.57;;;;;;;8.38;88.17;100470.28;5010698;28;20211;-72
2021/11/04 01:07:50;;;;;;;34.20;23.37;;;;;;;8.37;88.44;100465.16;5012214;28;20226;-72
2021/11/04 01:10:16;;;;;;;35.07;24.27;;;;;;;8.36;88.27;100471.94;5011377;28;20219;-72
2021/11/04 01:12:41;;;;;;;34.93;24.30;;;;;;;8.34;88.45;100480.41;5012764;28;20187;-72
2021/11/04 01:15:07;;;;;;;37.20;24.23;;;;;;;8.36;87.92;100471.06;5011958;28;20215;-72
2021/11/04 01:17:33;;;;;;;34.37;23.40;;;;;;;8.34;87.99;100458.28;5012191;28;20195;-72
2021/11/04 01:19:58;;;;;;;36.37;24.60;;;;;;;8.35;88.24;100464.25;5011818;28;20202;-72
2021/11/04 01:22:24;;;;;;;35.13;22.57;;;;;;;8.31;88.09;100460.78;5010952;28;20195;-72
2021/11/04 01:24:49;;;;;;;39.43;24.90;;;;;;;8.30;89.29;100460.75;5012554;28;20703;-73
2021/11/04 01:27:15;;;;;;;36.17;24.27;;;;;;;8.29;88.67;100454.78;5010839;28;20172;-72
2021/11/04 01:29:40;;;;;;;36.80;25.67;;;;;;;8.24;88.65;100461.47;5011622;28;20230;-72
2021/11/04 01:32:06;;;;;;;35.70;22.93;;;;;;;8.28;88.25;100459.84;5011754;28;20206;-72
2021/11/04 01:34:31;;;;;;;32.77;23.07;;;;;;;8.28;87.81;100458.16;5011684;28;20192;-71
2021/11/04 01:36:57;;;;;;;38.83;24.17;;;;;;;8.25;89.24;100455.53;5011034;28;20219;-72
2021/11/04 01:39:22;;;;;;;35.67;23.17;;;;;;;8.30;88.40;100458.19;5011006;28;20684;-72
2021/11/04 01:41:48;;;;;;;32.90;22.77;;;;;;;8.30;87.84;100453.09;5011550;28;20298;-72
2021/11/04 01:44:13;;;;;;;34.10;23.57;;;;;;;8.29;88.35;100453.94;5011740;28;20317;-72
2021/11/04 01:46:38;;;;;;;35.13;23.77;;;;;;;8.30;87.92;100451.38;5011276;28;20207;-72
2021/11/04 01:49:04;;;;;;;36.90;24.97;;;;;;;8.26;88.74;100458.97;5011347;28;20194;-72
2021/11/04 01:51:30;;;;;;;37.03;24.50;;;;;;;8.27;88.68;100453.03;5009839;28;20649;-72
2021/11/04 01:53:56;;;;;;;37.63;23.87;;;;;;;8.27;88.49;100460.66;5011093;28;20623;-72
2021/11/04 01:56:24;;;;;;;38.33;24.90;;;;;;;8.27;88.22;100456.44;5011126;28;20277;-72
2021/11/04 01:58:50;;;;;;;35.50;23.70;;;;;;;8.29;89.02;100456.47;5011223;28;20191;-72
2021/11/04 02:01:16;;;;;;;35.03;23.73;;;;;;;8.29;88.52;100452.22;5010178;28;20191;-72
2021/11/04 02:03:41;;;;;;;36.00;23.83;;;;;;;8.29;89.17;100446.28;5011411;28;20240;-72
2021/11/04 02:06:31;;;;;;;32.97;23.40;;;;;;;8.30;87.71;100445.44;5011066;28;20215;-72
2021/11/04 02:09:04;;;;;;;31.73;22.37;;;;;;;8.29;88.84;100452.22;5011124;28;20187;-72
2021/11/04 02:11:38;;;;;;;31.63;23.33;;;;;;;8.28;89.03;100452.19;5009335;28;20191;-72
2021/11/04 02:14:11;;;;;;;35.33;24.07;;;;;;;8.27;88.46;100453.03;5011059;28;20187;-72
2021/11/04 02:16:38;;;;;;;36.30;25.33;;;;;;;8.28;88.97;100452.19;5010589;28;20214;-72
2021/11/04 02:19:18;;;;;;;37.37;25.30;;;;;;;8.27;88.55;100445.38;5011364;28;20182;-70
2021/11/04 02:21:55;;;;;;;38.27;25.10;;;;;;;8.28;88.54;100447.97;5003005;28;20237;-73
2021/11/04 02:24:41;;;;;;;39.50;26.17;;;;;;;8.26;88.58;100433.44;5008544;28;20198;-72
2021/11/04 02:27:10;;;;;;;40.40;26.73;;;;;;;8.28;89.17;100439.44;5010958;28;20187;-72
2021/11/04 02:29:38;;;;;;;36.73;23.80;;;;;;;8.26;89.24;100439.44;5010746;28;20327;-72
2021/11/04 02:32:05;;;;;;;37.70;24.97;;;;;;;8.25;89.34;100432.56;5008502;28;20195;-72
2021/11/04 02:34:31;;;;;;;36.23;24.27;;;;;;;8.27;88.59;100432.63;5010207;28;20191;-72
2021/11/04 02:36:58;;;;;;;38.13;25.97;;;;;;;8.22;88.97;100436.75;5010829;28;20286;-72
2021/11/04 02:39:26;;;;;;;37.97;24.70;;;;;;;8.23;89.13;100435.91;5009688;28;20728;-72
2021/11/04 02:41:52;;;;;;;38.53;25.50;;;;;;;8.23;89.76;100426.59;5008247;28;20257;-72
2021/11/04 02:44:18;;;;;;;35.10;23.83;;;;;;;8.25;88.60;100426.63;5010438;28;20183;-72
2021/11/04 02:46:44;;;;;;;36.37;24.43;;;;;;;8.26;88.70;100433.44;5007639;28;20207;-72
2021/11/04 02:49:11;;;;;;;35.63;23.87;;;;;;;8.25;89.24;100424.09;5008716;28;20183;-72
2021/11/04 02:51:38;;;;;;;34.13;23.47;;;;;;;8.23;89.32;100416.41;5010036;28;20202;-72
2021/11/04 02:54:06;;;;;;;35.20;24.67;;;;;;;8.24;89.47;100422.38;5009613;28;20195;-72
2021/11/04 02:56:52;;;;;;;36.43;24.73;;;;;;;8.22;88.47;100418.91;5010070;28;20266;-72
2021/11/04 02:59:20;;;;;;;34.00;23.43;;;;;;;8.22;89.28;100419.78;5010469;28;20293;-72
2021/11/04 03:01:48;;;;;;;36.57;24.67;;;;;;;8.23;88.84;100418.06;5008678;28;20660;-72
2021/11/04 03:04:15;;;;;;;34.77;24.20;;;;;;;8.22;89.47;100427.44;5008887;28;20223;-72
2021/11/04 03:06:41;;;;;;;36.40;23.97;;;;;;;8.21;89.26;100427.41;5009113;28;20215;-72
2021/11/04 03:09:07;;;;;;;33.77;22.63;;;;;;;8.24;88.63;100425.75;5009044;28;20191;-73
2021/11/04 03:11:32;;;;;;;34.83;23.50;;;;;;;8.24;88.70;100427.47;5009514;28;20200;-72
2021/11/04 03:13:59;;;;;;;36.57;23.90;;;;;;;8.21;88.73;100430.78;5009848;28;20201;-72
2021/11/04 03:16:25;;;;;;;36.03;23.80;;;;;;;8.24;88.16;100442.78;5009797;28;20203;-72
2021/11/04 03:18:52;;;;;;;34.57;23.30;;;;;;;8.24;88.52;100435.97;5009038;28;20950;-72
2021/11/04 03:21:18;;;;;;;37.27;23.90;;;;;;;8.25;88.71;100424.09;5008396;28;20175;-72
2021/11/04 03:23:44;;;;;;;33.73;22.67;;;;;;;8.25;88.87;100434.28;5007598;28;20191;-72
2021/11/04 03:26:11;;;;;;;35.33;22.63;;;;;;;8.22;89.32;100435.09;5009806;28;20256;-72
2021/11/04 03:28:36;;;;;;;35.10;23.67;;;;;;;8.23;88.37;100439.34;5010046;28;20183;-72
2021/11/04 03:31:03;;;;;;;34.53;22.63;;;;;;;8.26;89.27;100428.34;5008242;28;20211;-73
2021/11/04 03:33:30;;;;;;;33.43;23.40;;;;;;;8.22;88.71;100424.88;5009123;28;20566;-72
2021/11/04 03:35:58;;;;;;;34.10;23.13;;;;;;;8.22;89.34;100426.56;5008545;28;20222;-73
2021/11/04 03:38:25;;;;;;;36.73;25.00;;;;;;;8.23;89.32;100438.47;5009690;28;20190;-72
2021/11/04 03:40:51;;;;;;;38.13;24.67;;;;;;;8.21;88.97;100440.16;5008475;28;20191;-72
2021/11/04 03:43:17;;;;;;;40.07;24.50;;;;;;;8.22;88.60;100437.63;5008722;28;20564;-72
2021/11/04 03:45:44;;;;;;;40.80;26.00;;;;;;;8.23;88.72;100429.16;5009303;28;20210;-72
2021/11/04 03:48:10;;;;;;;41.97;27.50;;;;;;;8.23;89.43;100426.59;5008758;28;20187;-72
2021/11/04 03:50:37;;;;;;;39.73;25.67;;;;;;;8.23;89.01;100426.59;5008007;28;20221;-72
2021/11/04 03:53:03;;;;;;;38.03;26.20;;;;;;;8.25;88.44;100427.47;5008684;28;20214;-73
2021/11/04 03:55:31;;;;;;;41.17;26.97;;;;;;;8.26;88.62;100429.22;5009381;28;20226;-72
2021/11/04 03:57:59;;;;;;;39.57;26.50;;;;;;;8.25;88.65;100429.19;5008508;28;20261;-72
2021/11/04 04:00:24;;;;;;;38.93;27.17;;;;;;;8.23;88.86;100441.03;5009499;28;20540;-72
2021/11/04 04:02:50;;;;;;;40.60;26.77;;;;;;;8.23;88.46;100439.34;5007088;28;20202;-72
2021/11/04 04:05:25;;;;;;;36.80;26.07;;;;;;;8.22;88.51;100440.19;5008983;28;20276;-72
2021/11/04 04:07:50;;;;;;;41.57;26.70;;;;;;;8.22;89.72;100436.75;5009135;28;20201;-73
2021/11/04 04:10:15;;;;;;;38.80;27.40;;;;;;;8.25;88.97;100430.03;5008927;28;20222;-73
2021/11/04 04:12:41;;;;;;;41.23;27.40;;;;;;;8.20;89.53;100423.97;5007694;28;20558;-73
2021/11/04 04:15:06;;;;;;;39.00;27.27;;;;;;;8.20;89.63;100415.44;5008363;28;20237;-76
2021/11/04 04:17:31;;;;;;;39.73;26.43;;;;;;;8.20;89.26;100421.41;5009728;28;20188;-72
2021/11/04 04:19:57;;;;;;;42.13;27.57;;;;;;;8.17;89.01;100423.00;5009286;28;20211;-72
2021/11/04 04:22:22;;;;;;;39.97;27.17;;;;;;;8.16;89.58;100411.94;5012129;28;20667;-72
2021/11/04 04:24:48;;;;;;;42.23;27.43;;;;;;;8.16;89.21;100416.19;5012788;28;20293;-72
2021/11/04 04:27:14;;;;;;;40.47;27.33;;;;;;;8.16;90.01;100421.31;5013065;28;20251;-72
2021/11/04 04:29:39;;;;;;;42.73;27.57;;;;;;;8.15;89.09;100420.44;5012802;28;20253;-72
2021/11/04 04:32:04;;;;;;;40.83;27.87;;;;;;;8.16;89.36;100417.03;5011207;28;20203;-72
2021/11/04 04:34:30;;;;;;;41.17;27.47;;;;;;;8.17;89.91;100408.59;5011910;28;20200;-72
2021/11/04 04:36:55;;;;;;;44.07;28.07;;;;;;;8.16;89.13;100396.66;5011314;28;20230;-72
2021/11/04 04:39:21;;;;;;;39.57;26.97;;;;;;;8.12;89.54;100405.09;5011222;28;20273;-72
2021/11/04 04:41:46;;;;;;;42.37;27.90;;;;;;;8.13;89.64;100401.69;5012460;28;20191;-72
2021/11/04 04:44:11;;;;;;;40.57;27.73;;;;;;;8.13;88.78;100411.03;5012566;28;20191;-72
2021/11/04 04:46:37;;;;;;;40.17;26.47;;;;;;;8.10;89.48;100406.72;5012541;28;20211;-72
2021/11/04 04:49:02;;;;;;;38.53;26.10;;;;;;;8.14;89.10;100405.97;5012808;28;20188;-73
2021/11/04 04:51:28;;;;;;;41.13;27.77;;;;;;;8.10;89.22;100401.63;5010118;28;20207;-73
2021/11/04 04:53:53;;;;;;;40.03;27.10;;;;;;;8.11;89.43;100407.59;5012246;28;20187;-72
2021/11/04 04:56:18;;;;;;;39.47;27.57;;;;;;;8.09;89.81;100402.44;5011926;28;20219;-72
2021/11/04 04:58:44;;;;;;;40.60;26.50;;;;;;;8.10;89.37;100400.75;5012902;28;20195;-72
2021/11/04 05:01:09;;;;;;;41.57;27.20;;;;;;;8.05;89.19;100407.44;5011459;28;20190;-72
2021/11/04 05:03:35;;;;;;;41.17;27.07;;;;;;;8.08;89.30;100413.50;5002383;28;20337;-72
2021/11/04 05:06:00;;;;;;;36.90;24.77;;;;;;;8.06;89.03;100412.56;5012184;28;20211;-72
2021/11/04 05:08:25;;;;;;;35.53;24.77;;;;;;;8.04;90.10;100411.69;5012335;28;20197;-72
2021/11/04 05:10:50;;;;;;;33.80;24.53;;;;;;;8.06;88.77;100414.28;5012455;28;20771;-72
2021/11/04 05:13:16;;;;;;;35.43;24.67;;;;;;;8.08;88.82;100417.72;5012298;28;20183;-73
2021/11/04 05:15:41;;;;;;;36.53;25.47;;;;;;;8.09;89.45;100425.41;5012114;28;20207;-73
2021/11/04 05:18:08;;;;;;;36.07;24.50;;;;;;;8.06;89.78;100417.66;5011095;28;20233;-73
2021/11/04 05:20:36;;;;;;;34.53;23.43;;;;;;;8.06;89.47;100427.88;5012342;28;20226;-73
2021/11/04 05:23:01;;;;;;;33.37;22.10;;;;;;;8.05;89.70;100425.28;5012118;28;20185;-73
2021/11/04 05:25:26;;;;;;;31.90;22.93;;;;;;;8.07;88.66;100433.84;5012038;28;20203;-73
2021/11/04 05:27:52;;;;;;;30.20;21.20;;;;;;;8.04;89.71;100429.53;5012097;28;20183;-73
2021/11/04 05:30:19;;;;;;;30.23;20.70;;;;;;;8.01;89.50;100431.16;5012175;28;20647;-73
2021/11/04 05:32:45;;;;;;;29.30;21.03;;;;;;;8.00;89.00;100434.50;5011288;28;20196;-73
2021/11/04 05:35:11;;;;;;;26.37;19.70;;;;;;;8.04;89.07;100433.75;5010213;28;20229;-72
2021/11/04 05:37:37;;;;;;;25.00;19.43;;;;;;;8.01;88.59;100439.66;5012529;28;20617;-73
2021/11/04 05:40:03;;;;;;;29.23;20.03;;;;;;;8.06;89.09;100442.31;5012037;28;20179;-73
2021/11/04 05:42:28;;;;;;;29.87;20.00;;;;;;;8.06;88.78;100442.31;5011662;28;20198;-73
2021/11/04 05:44:53;;;;;;;25.27;18.67;;;;;;;8.02;88.72;100443.91;5011612;28;20195;-74
2021/11/04 05:47:19;;;;;;;27.43;19.57;;;;;;;8.01;89.28;100444.75;5010251;28;20203;-74
2021/11/04 05:49:44;;;;;;;24.43;17.93;;;;;;;8.04;88.38;100449.06;5010326;28;20226;-73
2021/11/04 05:52:10;;;;;;;22.13;16.13;;;;;;;8.00;88.78;100454.91;5009976;28;20211;-73
2021/11/04 05:54:36;;;;;;;21.57;16.03;;;;;;;8.02;89.29;100448.19;5010415;28;20184;-74
2021/11/04 05:57:02;;;;;;;16.90;13.67;;;;;;;7.96;88.82;100450.56;5010309;28;20191;-73
2021/11/04 05:59:27;;;;;;;21.97;16.00;;;;;;;7.96;88.35;100446.34;5011237;28;20194;-74
2021/11/04 06:01:53;;;;;;;20.13;14.17;;;;;;;7.95;88.14;100453.94;5010282;28;20191;-73
2021/11/04 06:04:20;;;;;;;18.43;13.43;;;;;;;7.94;88.56;100454.78;5011807;28;20190;-74
2021/11/04 06:06:45;;;;;;;16.43;12.83;;;;;;;7.95;88.61;100456.50;5011526;28;20429;-74
2021/11/04 06:09:10;;;;;;;18.17;13.33;;;;;;;7.94;88.04;100458.19;5011957;28;20210;-74
2021/11/04 06:11:36;;;;;;;15.10;10.77;;;;;;;7.91;88.39;100457.25;5011869;28;20218;-73
2021/11/04 06:14:01;;;;;;;17.67;9.80;;;;;;;7.88;88.69;100457.19;5011925;28;20273;-73
2021/11/04 06:16:27;;;;;;;12.33;8.67;;;;;;;7.86;88.32;100462.25;5011371;28;20214;-74
2021/11/04 06:18:52;;;;;;;11.17;8.40;;;;;;;7.79;88.22;100462.06;5011635;28;20274;-74
2021/11/04 06:21:18;;;;;;;11.30;8.00;;;;;;;7.81;87.79;100462.94;5009806;28;20187;-74
2021/11/04 06:23:44;;;;;;;10.70;8.00;;;;;;;7.84;88.24;100468.97;5009841;28;20792;-74
2021/11/04 06:26:09;;;;;;;11.13;8.27;;;;;;;7.85;88.45;100465.63;5010856;28;20203;-74
2021/11/04 06:28:35;;;;;;;10.53;8.10;;;;;;;7.79;88.17;100465.47;5010870;28;20198;-74
2021/11/04 06:31:01;;;;;;;11.60;8.60;;;;;;;7.77;88.72;100464.56;5011204;28;20563;-74
2021/11/04 06:33:26;;;;;;;11.17;7.93;;;;;;;7.84;88.36;100465.59;5011218;28;20550;-73
2021/11/04 06:35:53;;;;;;;9.53;7.37;;;;;;;7.81;88.03;100468.94;5010957;28;20261;-73
2021/11/04 06:38:19;;;;;;;9.03;7.20;;;;;;;7.81;88.50;100462.94;5010967;28;20207;-73
2021/11/04 06:40:44;;;;;;;11.77;8.60;;;;;;;7.79;88.67;100464.63;5010506;28;20218;-73
2021/11/04 06:43:12;;;;;;;11.13;8.10;;;;;;;7.70;88.82;100449.94;5010764;28;20191;-74
2021/11/04 06:45:46;;;;;;;8.17;6.53;;;;;;;7.75;89.36;100448.41;5010555;28;20336;-73
2021/11/04 06:48:14;;;;;;;9.57;7.37;;;;;;;7.75;89.68;100444.97;5010873;28;20184;-73
2021/11/04 06:50:40;;;;;;;9.03;7.20;;;;;;;7.73;88.73;100449.16;5010447;28;20706;-73
2021/11/04 06:53:11;;;;;;;10.37;7.67;;;;;;;7.70;89.42;100444.84;5010609;28;20265;-74
2021/11/04 06:55:39;;;;;;;8.67;6.47;;;;;;;7.69;89.43;100444.84;5010471;28;20751;-74
2021/11/04 06:58:05;;;;;;;8.53;6.23;;;;;;;7.70;89.85;100449.09;5010525;28;20195;-73
2021/11/04 07:00:33;;;;;;;9.57;6.90;;;;;;;7.72;89.11;100442.34;5010234;28;20187;-73
2021/11/04 07:03:13;;;;;;;8.47;6.30;;;;;;;7.72;88.80;100448.31;5010452;28;20191;-73
2021/11/04 07:05:38;;;;;;;8.40;6.40;;;;;;;7.70;88.81;100447.41;5008566;28;20235;-73
2021/11/04 07:08:04;;;;;;;8.50;6.60;;;;;;;7.74;88.29;100451.75;5010484;28;20615;-73
2021/11/04 07:10:30;;;;;;;9.07;5.90;;;;;;;7.76;89.09;100439.94;5010382;28;20191;-74
2021/11/04 07:12:55;;;;;;;10.30;7.97;;;;;;;7.76;88.90;100454.34;5009088;28;20563;-73
2021/11/04 07:15:22;;;;;;;8.67;6.37;;;;;;;7.71;88.77;100453.38;5010252;28;20298;-73
2021/11/04 07:17:47;;;;;;;11.03;7.63;;;;;;;7.75;89.15;100455.16;5010229;28;20179;-73
2021/11/04 07:20:16;;;;;;;9.60;7.00;;;;;;;7.70;89.70;100456.75;5010372;28;20175;-73
2021/11/04 07:22:52;;;;;;;9.67;6.73;;;;;;;7.72;88.72;100461.06;5010515;28;20294;-74
2021/11/04 07:25:23;;;;;;;10.33;6.80;;;;;;;7.74;89.59;100448.34;5010007;28;20221;-71
2021/11/04 07:28:06;;;;;;;9.90;6.97;;;;;;;7.75;89.21;100448.41;5010027;28;20199;-74
2021/11/04 07:30:31;;;;;;;11.47;7.93;;;;;;;7.76;89.70;100442.47;5009950;28;20269;-73
2021/11/04 07:32:59;;;;;;;11.90;8.17;;;;;;;7.80;89.66;100439.19;5010028;28;20198;-73
2021/11/04 07:35:30;;;;;;;13.93;9.17;;;;;;;7.78;89.67;100437.41;5010371;28;20215;-74
2021/11/04 07:37:57;;;;;;;14.03;9.13;;;;;;;7.80;90.30;100435.75;5011506;28;20179;-73
2021/11/04 07:40:25;;;;;;;16.60;9.90;;;;;;;7.85;89.24;100429.94;5010171;28;20191;-73
2021/11/04 07:42:50;;;;;;;18.13;11.73;;;;;;;7.85;89.85;100432.50;5010027;28;20187;-73
2021/11/04 07:45:16;;;;;;;18.97;12.33;;;;;;;7.86;89.80;100426.56;5007883;28;20301;-73
2021/11/04 07:47:44;;;;;;;18.40;11.50;;;;;;;7.92;89.73;100425.84;5009786;28;20183;-73
2021/11/04 07:50:11;;;;;;;21.37;13.87;;;;;;;7.92;90.43;100421.59;5009793;28;20211;-73
2021/11/04 07:52:38;;;;;;;20.10;13.10;;;;;;;7.98;90.31;100418.34;5009629;28;20198;-73
2021/11/04 07:55:05;;;;;;;23.80;13.90;;;;;;;7.98;90.32;100414.13;5011711;28;20219;-74
2021/11/04 07:57:32;;;;;;;22.23;14.63;;;;;;;7.97;90.74;100420.00;5016166;28;20226;-73
2021/11/04 07:59:58;;;;;;;23.50;14.43;;;;;;;7.96;90.61;100415.75;5016219;28;20206;-73
2021/11/04 08:02:24;;;;;;;29.17;16.37;;;;;;;7.98;91.08;100416.66;5015942;28;20653;-73
2021/11/04 08:04:49;;;;;;;25.40;15.33;;;;;;;7.98;90.82;100420.88;5016078;28;20676;-74
2021/11/04 08:07:16;;;;;;;22.53;13.70;;;;;;;8.03;90.57;100419.31;5015914;28;20590;-73
2021/11/04 08:09:41;;;;;;;23.37;14.97;;;;;;;8.06;90.72;100427.88;5015979;28;20221;-73
2021/11/04 08:12:07;;;;;;;22.73;14.30;;;;;;;8.05;91.24;100418.50;5016111;28;20823;-73
2021/11/04 08:14:32;;;;;;;23.60;15.83;;;;;;;8.06;90.80;100424.47;5016112;28;20266;-73
2021/11/04 08:16:58;;;;;;;25.53;17.07;;;;;;;8.08;90.86;100425.34;5016061;28;20187;-73
2021/11/04 08:19:23;;;;;;;22.27;14.33;;;;;;;8.10;90.98;100424.56;5016231;28;20183;-73
2021/11/04 08:21:48;;;;;;;20.57;13.50;;;;;;;8.09;90.58;100424.53;5016114;28;20202;-74
2021/11/04 08:24:13;;;;;;;20.50;13.47;;;;;;;8.05;90.31;100431.25;5016078;28;20214;-73
2021/11/04 08:26:39;;;;;;;22.67;13.73;;;;;;;8.09;90.92;100430.50;5015824;28;20210;-73
2021/11/04 08:29:04;;;;;;;21.23;13.40;;;;;;;8.13;90.11;100424.66;5014832;28;20196;-73
2021/11/04 08:31:30;;;;;;;22.10;13.60;;;;;;;8.14;90.50;100423.81;5015786;28;20567;-73
2021/11/04 08:33:56;;;;;;;21.23;13.70;;;;;;;8.16;90.72;100422.16;5016337;28;20728;-74
2021/11/04 08:36:22;;;;;;;22.00;13.73;;;;;;;8.20;90.60;100418.88;5015801;28;20214;-73
2021/11/04 08:38:47;;;;;;;24.07;13.97;;;;;;;8.21;90.00;100415.47;5016072;28;20199;-73
2021/11/04 08:41:13;;;;;;;18.63;12.60;;;;;;;8.23;91.15;100421.50;5014291;28;20187;-74
2021/11/04 08:43:38;;;;;;;22.63;14.47;;;;;;;8.28;90.81;100422.44;5016042;28;20569;-74
2021/11/04 08:46:04;;;;;;;21.23;13.80;;;;;;;8.30;90.99;100417.41;5015590;28;20297;-73
2021/11/04 08:48:29;;;;;;;22.13;14.20;;;;;;;8.33;89.83;100419.97;5014549;28;20195;-74
2021/11/04 08:50:55;;;;;;;20.10;13.60;;;;;;;8.31;90.74;100424.22;5014227;28;20206;-73
2021/11/04 08:53:20;;;;;;;21.60;13.70;;;;;;;8.36;90.04;100425.16;5015846;28;20214;-74
2021/11/04 08:55:46;;;;;;;20.03;13.13;;;;;;;8.39;89.93;100420.97;5015482;28;20288;-74
2021/11/04 08:58:12;;;;;;;24.03;14.30;;;;;;;8.40;90.67;100426.97;5014330;28;20257;-74
2021/11/04 09:00:37;;;;;;;21.90;14.10;;;;;;;8.42;90.78;100422.72;5015585;28;20704;-73
2021/11/04 09:03:03;;;;;;;21.00;14.30;;;;;;;8.43;90.15;100420.22;5014767;28;20187;-74
2021/11/04 09:05:28;;;;;;;19.13;13.30;;;;;;;8.47;89.70;100416.06;5015616;28;20207;-74
2021/11/04 09:07:54;;;;;;;19.77;12.87;;;;;;;8.54;89.81;100421.31;5011585;28;20171;-74
2021/11/04 09:10:21;;;;;;;20.13;13.50;;;;;;;8.55;89.93;100414.50;5012380;28;20311;-74
2021/11/04 09:12:47;;;;;;;19.57;13.60;;;;;;;8.53;89.45;100409.38;5012493;28;20199;-73
2021/11/04 09:15:13;;;;;;;19.00;12.93;;;;;;;8.58;89.83;100417.13;5012470;28;20219;-74
2021/11/04 09:17:40;;;;;;;22.27;15.03;;;;;;;8.57;89.25;100413.72;5012314;28;20932;-73
2021/11/04 09:20:08;;;;;;;20.70;13.53;;;;;;;8.56;90.01;100409.44;5012222;28;20199;-74
2021/11/04 09:22:34;;;;;;;24.17;15.10;;;;;;;8.64;90.51;100402.81;5012306;28;20218;-74
2021/11/04 09:25:00;;;;;;;21.70;14.63;;;;;;;8.71;89.29;100396.13;5012297;28;20217;-74
2021/11/04 09:27:25;;;;;;;23.07;15.47;;;;;;;8.69;89.67;100401.19;5011972;28;20294;-74
2021/11/04 09:29:51;;;;;;;24.57;16.07;;;;;;;8.76;89.72;100394.53;5011966;28;20207;-74
2021/11/04 09:32:17;;;;;;;22.73;16.03;;;;;;;8.75;89.67;100393.66;5012467;28;20199;-74
2021/11/04 09:34:42;;;;;;;24.40;17.13;;;;;;;8.76;89.72;100391.97;5012141;28;20267;-73
2021/11/04 09:37:08;;;;;;;25.23;16.77;;;;;;;8.79;89.98;100384.34;5011956;28;20187;-74
2021/11/04 09:39:35;;;;;;;24.50;17.07;;;;;;;8.78;89.81;100385.19;5011984;28;20229;-73
2021/11/04 09:42:02;;;;;;;23.10;16.17;;;;;;;8.84;89.94;100387.88;5012197;28;20270;-74
2021/11/04 09:44:28;;;;;;;23.83;17.17;;;;;;;8.86;89.04;100388.75;5012218;28;20188;-74
2021/11/04 09:46:53;;;;;;;25.43;17.03;;;;;;;8.88;89.11;100389.63;5011792;28;20562;-73
2021/11/04 09:49:19;;;;;;;29.07;18.63;;;;;;;8.89;89.33;100383.72;5011680;28;20241;-73
2021/11/04 09:51:44;;;;;;;26.43;17.33;;;;;;;8.92;89.03;100384.63;5011772;28;21107;-73
2021/11/04 09:54:10;;;;;;;25.33;17.30;;;;;;;8.93;89.41;100382.91;5011666;28;20187;-73
2021/11/04 09:56:37;;;;;;;28.20;18.20;;;;;;;8.94;89.54;100380.41;5011386;28;20272;-74
2021/11/04 09:59:02;;;;;;;26.10;17.80;;;;;;;8.97;88.71;100374.47;5011515;28;20191;-74
2021/11/04 10:01:29;;;;;;;26.70;18.37;;;;;;;8.96;89.59;100382.97;5011658;28;20523;-73
2021/11/04 10:03:56;;;;;;;27.37;18.30;;;;;;;8.97;88.83;100390.69;5011443;28;20196;-73
2021/11/04 10:06:25;;;;;;;29.67;18.23;;;;;;;9.03;89.10;100392.50;5009669;28;20231;-73
2021/11/04 10:08:53;;;;;;;30.70;18.60;;;;;;;9.03;89.27;100387.38;5011069;28;20290;-73
2021/11/04 10:11:20;;;;;;;26.23;17.93;;;;;;;9.07;89.24;100389.16;5011396;28;20295;-73
2021/11/04 10:13:47;;;;;;;27.97;18.77;;;;;;;9.05;88.81;100375.50;5010085;28;20206;-73
2021/11/04 10:16:14;;;;;;;28.03;18.57;;;;;;;9.05;89.48;100376.38;5011144;28;20301;-73
2021/11/04 10:18:44;;;;;;;28.37;18.80;;;;;;;9.03;90.12;100385.66;5010827;28;20234;-73
2021/11/04 10:21:09;;;;;;;27.37;18.40;;;;;;;9.06;88.88;100378.06;5011346;28;20191;-73
2021/11/04 10:23:45;;;;;;;28.67;18.57;;;;;;;9.15;89.04;100380.78;5011507;28;20244;-73
2021/11/04 10:26:23;;;;;;;29.80;18.53;;;;;;;9.16;88.70;100374.84;5010833;28;20238;-73
2021/11/04 10:28:56;;;;;;;29.00;18.93;;;;;;;9.17;89.05;100379.09;5009442;28;20278;-74
2021/11/04 10:31:22;;;;;;;28.70;18.63;;;;;;;9.18;88.45;100377.44;5010969;28;20223;-74
2021/11/04 10:33:50;;;;;;;27.83;19.00;;;;;;;9.24;88.54;100372.41;5011057;28;20597;-74
2021/11/04 10:36:19;;;;;;;28.47;18.60;;;;;;;9.24;89.11;100375.84;5010595;28;20322;-73
2021/11/04 10:38:53;;;;;;;26.47;18.13;;;;;;;9.25;89.30;100379.25;5010757;28;20306;-73
2021/11/04 10:41:30;;;;;;;26.83;18.30;;;;;;;9.26;89.28;100388.66;5009377;28;20186;-74
2021/11/04 10:44:03;;;;;;;28.50;18.13;;;;;;;9.20;89.51;100384.28;5010943;28;20616;-73
2021/11/04 10:46:30;;;;;;;26.67;17.33;;;;;;;9.22;89.58;100369.81;5010600;28;20776;-73
2021/11/04 10:49:03;;;;;;;27.23;17.87;;;;;;;9.22;89.78;100374.09;5010673;28;20199;-73
2021/11/04 10:51:30;;;;;;;26.90;17.63;;;;;;;9.25;89.00;100376.69;5010646;28;20207;-74
2021/11/04 10:54:08;;;;;;;26.83;18.37;;;;;;;9.28;89.31;100377.63;5011012;28;20726;-74
2021/11/04 10:56:35;;;;;;;24.87;17.23;;;;;;;9.31;89.29;100369.16;5009190;28;20219;-73
2021/11/04 10:59:08;;;;;;;24.90;17.03;;;;;;;9.34;89.29;100374.28;5010499;28;20694;-72
2021/11/04 11:01:41;;;;;;;26.63;17.03;;;;;;;9.33;88.62;100370.88;5010242;28;20269;-76
2021/11/04 11:04:12;;;;;;;24.23;16.90;;;;;;;9.38;88.46;100366.72;5012182;28;20186;-74
2021/11/04 11:06:41;;;;;;;25.30;17.10;;;;;;;9.38;87.82;100366.72;5010214;28;20195;-74
2021/11/04 11:09:10;;;;;;;24.37;16.93;;;;;;;9.39;88.18;100362.44;5010292;28;20256;-72
2021/11/04 11:11:37;;;;;;;23.73;17.23;;;;;;;9.43;88.85;100357.41;5010266;28;20237;-74
2021/11/04 11:14:03;;;;;;;25.10;17.60;;;;;;;9.48;88.43;100365.16;5010334;28;20207;-74
2021/11/04 11:16:28;;;;;;;25.50;17.93;;;;;;;9.45;88.92;100358.28;5008792;28;20599;-74
2021/11/04 11:18:57;;;;;;;25.77;17.80;;;;;;;9.44;88.07;100356.56;5010147;28;20262;-74